The Medway Towns, United Kingdom
Current Conditions -  °F | °C
As of 3:20 PM on Saturday 25 Oct 2014 (Local Time) from EGMC Reporting Station
Few Clouds Few Clouds  
Wind Chill: 16°   Ceiling: Unl
Heat Index: 16°   Visibility: 6mi
Dew Point:   Wind: 13mph
Humidity: 55%   Direction: 240°WSW
Pressure: 30.06"   Gusts: NA
Location:  51.36°N, 0.54°E
Report Text: EGMC 251420Z 24011KT 9999 FEW038 16/07 Q1018
Loading
Personal Weather Stations






























Interactive Weather Map
Tropical Storm Tracking
New forecast layout! Learn more

10-Day Weather Forecast

Advertisements
Track Severe Weather on mobile